Main page
METAR-TAF:

METAR-TAF

Airports :

Current weather observation

The report was made 44 minutes ago, at 22:00 UTC
Wind 4 kt from the North
Temperature 16°C
Humidity 94%
Pressure 1017 hPa
Visibility: 8000 m
Clear sky
mist

METAR: LBPG 252200Z 36004KT 8000 BR SKC 16/15 Q1017

Time: 22:44 (22:44 UTC)

Forecast

The report was made 17 hours and 44 minutes ago, at 05:00 UTC
Forecast valid from 25 at 06 UTC to 25 at 18 UTC
Wind 7 kt from the East/Southeast
Visibility 10 km or more
Few clouds at a height of 5000 ft
Scattered clouds at a height of 10000 ft
Scattered clouds at a height of 20000 ft

TAF: LBPG 250500Z 2506/2518 11007KT 9999 FEW050 SCT100 SCT200 BY LBSA

Weather observations and forecasts of more than 4000 airports (METAR and TAF reports).

The available stations are represented by yellow and red dots on the map.

Hover mouse over dot to see the name of the station.

Then click to see weather observations and forecasts.

To change the map : click on the green buttons with a black cross to zoom in, on the green button with a dash to zoom out, or on the green arrows for adjacent maps.


METAR-TAF: